Weare, New Hampshire
Current Conditions -  °F | °C
As of 3:51 PM on Saturday 20 Dec 2014 (Local Time) from KCON Reporting Station
Overcast Overcast  
Wind Chill: 33°   Ceiling: 3500
Heat Index: 33°   Visibility: 10mi
Dew Point: 19°   Wind: 0mph
Humidity: 56%   Direction: NA
Pressure: 30.27"   Gusts: NA
Location:  43.09°N, 71.73°W
Report Text: KCON 202051Z AUTO 00000KT 10SM OVC035 01/M07 A3027 RMK AO2 SLP257 T00061072 53002
Loading
Personal Weather Stations






























Interactive Weather Map New forecast layout! Learn more

10-Day Weather Forecast

Advertisements
Track Severe Weather on mobile